METAR Data
IDs: Format: Raw Decoded Include TAF

Data at: 0425 UTC 26 Sep 2018

KGPH 260415Z AUTO 00000KT 10SM CLR 13/11 A3015 RMK AO2
KGPH 260355Z AUTO 00000KT 10SM CLR 13/11 A3015 RMK AO2
KGPH 260335Z AUTO 00000KT 10SM CLR 13/11 A3013 RMK AO2
KGPH 260315Z AUTO 33004KT 10SM CLR 14/11 A3012 RMK AO2
KGPH 260255Z AUTO 34004KT 10SM CLR 15/11 A3011 RMK AO2 LTG DSNT SE
KGPH 260235Z AUTO 34005KT 10SM CLR 15/11 A3011 RMK AO2 LTG DSNT S
KGPH 260215Z AUTO 33006KT 10SM SCT085 15/11 A3010 RMK AO2
KGPH 260155Z AUTO 34006KT 10SM BKN085 15/11 A3010 RMK AO2
KGPH 260135Z AUTO 34008KT 10SM SCT085 16/11 A3008 RMK AO2
KGPH 260115Z AUTO 34008KT 10SM SCT024 SCT060 BKN085 16/11 A3008 RMK AO2
KGPH 260055Z AUTO 35012KT 10SM BKN022 BKN028 OVC085 16/11 A3006 RMK AO2
KGPH 260035Z AUTO 34011G16KT 10SM OVC022 16/12 A3006 RMK AO2
KGPH 260015Z AUTO 34010KT 10SM OVC023 17/12 A3004 RMK AO2
KGPH 252355Z AUTO 34008G16KT 10SM OVC021 17/12 A3003 RMK AO2
KGPH 252335Z AUTO 35009G15KT 10SM OVC021 17/12 A3002 RMK AO2
KGPH 252315Z AUTO 34013G16KT 10SM OVC019 17/13 A3000 RMK AO2
KGPH 252255Z AUTO 34012G19KT 10SM BKN017 BKN046 OVC055 17/13 A2999 RMK AO2
KGPH 252235Z AUTO 34012G19KT 10SM BKN017 BKN044 OVC055 18/13 A2998 RMK AO2
KGPH 252215Z AUTO 33008G19KT 10SM OVC017 18/15 A2997 RMK AO2
KGPH 252155Z AUTO 34009G18KT 10SM BKN019 OVC035 20/15 A2997 RMK AO2
KGPH 252135Z AUTO 34015G20KT 10SM SCT019 BKN031 21/15 A2995 RMK AO2
KGPH 252115Z AUTO 33009G16KT 10SM SCT090 21/15 A2994 RMK AO2
KGPH 252055Z AUTO 35011G14KT 10SM SCT025 SCT042 SCT090 22/16 A2993 RMK AO2
KGPH 252035Z AUTO 32012G17KT 10SM SCT034 SCT042 BKN055 22/16 A2993 RMK AO2
KGPH 252015Z AUTO 33009G17KT 10SM SCT032 BKN040 OVC050 22/17 A2992 RMK AO2
KGPH 251955Z AUTO 34012G18KT 10SM BKN036 OVC045 24/17 A2991 RMK AO2
KGPH 251935Z AUTO 27007KT 10SM SCT036 BKN045 BKN065 26/17 A2990 RMK AO2
KGPH 251915Z AUTO 27006KT 10SM SCT065 26/17 A2990 RMK AO2
KGPH 251855Z AUTO 25008KT 10SM SCT036 BKN047 BKN055 27/16 A2990 RMK AO2
KGPH 251835Z AUTO 29004KT 10SM BKN034 BKN055 27/16 A2990 RMK AO2
KGPH 251815Z AUTO 26004KT 10SM SCT032 SCT047 SCT055 26/16 A2991 RMK AO2
KGPH 251755Z AUTO 29006KT 10SM SCT032 SCT041 BKN049 26/17 A2991 RMK AO2
KGPH 251735Z AUTO 25008KT 10SM SCT026 BKN035 BKN044 25/17 A2992 RMK AO2
KGPH 251715Z AUTO 25008G15KT 10SM SCT022 BKN030 BKN036 25/18 A2992 RMK AO2
KGPH 251655Z AUTO 26008KT 10SM SCT021 BKN027 BKN034 23/18 A2992 RMK AO2
KGPH 251635Z AUTO 25013G22KT 10SM SCT021 BKN029 OVC050 23/18 A2993 RMK AO2
KGPH 251615Z AUTO 26010G16KT 10SM SCT019 BKN026 BKN050 25/18 A2992 RMK AO2
KGPH 251555Z AUTO 24009KT 10SM SCT017 25/19 A2991 RMK AO2
KGPH 251535Z AUTO 22006KT 10SM SCT015 25/19 A2990 RMK AO2
KGPH 251515Z AUTO 20007KT 10SM SCT015 24/20 A2989 RMK AO2
KGPH 251455Z AUTO 19004KT 10SM CLR 23/20 A2989 RMK AO2
KGPH 251435Z AUTO 20005KT 10SM SCT006 22/20 A2988 RMK AO2
KGPH 251415Z AUTO 19005KT 10SM BKN006 21/20 A2988 RMK AO2
KGPH 251355Z AUTO 15004KT 10SM SCT006 20/20 A2988 RMK AO2
KGPH 251335Z AUTO 14003KT 10SM SCT004 19/19 A2988 RMK AO2
KGPH 251315Z AUTO 00000KT 10SM CLR 18/18 A2989 RMK AO2 LTG DSNT N
KGPH 251255Z AUTO 00000KT 7SM CLR 18/17 A2989 RMK AO2
KGPH 251235Z AUTO 15003KT 7SM CLR 17/17 A2988 RMK AO2
KGPH 251215Z AUTO 14003KT 5SM BR SCT001 SCT060 17/17 A2988 RMK AO2
KGPH 251155Z AUTO 00000KT 5SM BR BKN001 BKN050 OVC060 17/17 A2989 RMK AO2
KGPH 251135Z AUTO 00000KT 7SM SCT001 SCT050 SCT060 17/17 A2989 RMK AO2
KGPH 251115Z AUTO 00000KT 7SM CLR 16/16 A2989 RMK AO2
KGPH 251055Z AUTO 00000KT 10SM CLR 16/16 A2989 RMK AO2
KGPH 251035Z AUTO 00000KT 10SM BKN070 16/16 A2989 RMK AO2
KGPH 251015Z AUTO 00000KT 10SM SCT026 BKN070 16/16 A2989 RMK AO2
KGPH 250955Z AUTO 00000KT 10SM SCT026 SCT050 SCT070 16/16 A2989 RMK AO2 LTG DSNT E
KGPH 250935Z AUTO 00000KT 10SM SCT060 BKN065 16/15 A2989 RMK AO2 LTG DSNT SE
KGPH 250915Z AUTO 00000KT 10SM SCT049 OVC060 16/15 A2989 RMK AO2
KGPH 250855Z AUTO 00000KT 10SM SCT043 SCT050 OVC060 15/15 A2990 RMK AO2
KGPH 250835Z AUTO 00000KT 4SM BR BKN060 15/15 A2989 RMK AO2 LTG DSNT E
KGPH 250815Z AUTO 00000KT 10SM SCT001 15/15 A2989 RMK AO2
KGPH 250735Z AUTO 00000KT 1 1/2SM BR BKN001 16/15 A2989 RMK AO2
KGPH 250715Z AUTO 00000KT 3/4SM BR SCT001 16/15 A2989 RMK AO2
KGPH 250655Z AUTO 00000KT 10SM CLR 16/15 A2989 RMK AO2
KGPH 250635Z AUTO 00000KT 10SM SCT050 16/15 A2989 RMK AO2 LTG DSNT E
KGPH 250615Z AUTO 00000KT 10SM SCT050 16/15 A2989 RMK AO2
KGPH 250555Z AUTO 00000KT 10SM BKN050 16/16 A2989 RMK AO2
KGPH 250515Z AUTO 00000KT 4SM BR SCT050 16/16 A2990 RMK AO2
KGPH 250455Z AUTO 00000KT 7SM SCT050 16/16 A2990 RMK AO2
KGPH 250435Z AUTO 00000KT 10SM SCT050 17/16 A2990 RMK AO2
KGPH 250415Z AUTO 00000KT 10SM SCT050 16/16 A2990 RMK AO2
KGPH 250355Z AUTO 00000KT 10SM CLR 17/16 A2990 RMK AO2
KGPH 250335Z AUTO 00000KT 10SM CLR 18/17 A2989 RMK AO2
KGPH 250315Z AUTO 00000KT 10SM CLR 18/17 A2989 RMK AO2
KGPH 250255Z AUTO 00000KT 10SM CLR 19/16 A2988 RMK AO2
KGPH 250235Z AUTO 00000KT 10SM CLR 20/17 A2988 RMK AO2
KGPH 250215Z AUTO 15003KT 10SM CLR 20/17 A2988 RMK AO2
KGPH 250155Z AUTO 14003KT 10SM CLR 20/17 A2987 RMK AO2
KGPH 250135Z AUTO 00000KT 10SM CLR 21/16 A2987 RMK AO2
KGPH 250115Z AUTO 14003KT 10SM SCT035 21/16 A2986 RMK AO2
KGPH 250055Z AUTO 00000KT 10SM BKN035 22/16 A2985 RMK AO2
KGPH 250035Z AUTO 13003KT 10SM OVC035 22/16 A2985 RMK AO2
KGPH 250015Z AUTO 14003KT 10SM OVC035 22/16 A2985 RMK AO2
KGPH 242355Z AUTO 13003KT 10SM OVC035 23/16 A2985 RMK AO2
KGPH 242335Z AUTO 13003KT 10SM BKN035 23/16 A2985 RMK AO2
KGPH 242315Z AUTO 14004KT 10SM OVC033 23/16 A2985 RMK AO2
KGPH 242255Z AUTO 14004KT 10SM OVC033 23/16 A2985 RMK AO2
KGPH 242235Z AUTO 18005KT 10SM OVC033 23/16 A2986 RMK AO2
KGPH 242215Z AUTO 17005KT 10SM SCT025 OVC033 23/17 A2985 RMK AO2
KGPH 242155Z AUTO 17005KT 10SM SCT025 OVC033 25/17 A2985 RMK AO2
KGPH 242135Z AUTO 16005KT 10SM SCT025 OVC031 23/17 A2985 RMK AO2
KGPH 242115Z AUTO 18005KT 10SM OVC031 23/17 A2986 RMK AO2
KGPH 242055Z AUTO 16006KT 10SM OVC031 23/17 A2986 RMK AO2
KGPH 242035Z AUTO 14006KT 10SM SCT020 OVC031 23/17 A2986 RMK AO2
KGPH 242015Z AUTO 16008KT 10SM SCT020 OVC031 23/17 A2986 RMK AO2
KGPH 241955Z AUTO 19004KT 10SM SCT020 SCT028 OVC033 23/17 A2987 RMK AO2
KGPH 241935Z AUTO 17004KT 10SM OVC029 23/17 A2988 RMK AO2
KGPH 241915Z AUTO 20004KT 10SM SCT021 OVC029 22/17 A2989 RMK AO2
KGPH 241855Z AUTO 19004KT 10SM BKN019 OVC027 22/17 A2990 RMK AO2
KGPH 241835Z AUTO 16003KT 10SM SCT019 BKN027 OVC032 22/17 A2991 RMK AO2
KGPH 241815Z AUTO 00000KT 10SM SCT019 OVC027 22/17 A2992 RMK AO2
KGPH 241755Z AUTO 16003KT 10SM OVC027 22/17 A2992 RMK AO2
KGPH 241735Z AUTO 00000KT 10SM SCT018 OVC027 22/17 A2993 RMK AO2
KGPH 241715Z AUTO 00000KT 10SM OVC016 21/17 A2994 RMK AO2
KGPH 241655Z AUTO 23003KT 10SM BKN016 OVC020 21/17 A2995 RMK AO2
KGPH 241635Z AUTO 20004KT 10SM OVC016 21/17 A2995 RMK AO2